Time;durP1;ratioP1;P1;durP2;ratioP2;P2;SDS_P1;SDS_P2;PMS_P1;PMS_P2;Temp;Humidity;BMP_temperature;BMP_pressure;BME280_temperature;BME280_humidity;BME280_pressure;Samples;Min_cycle;Max_cycle;Signal;HPM_P1;HPM_P2
2023/06/09 00:00:18;;;;;;;9.20;6.80;;;17.80;99.90;;;;;;5135523;27;20042;-68
2023/06/09 00:02:45;;;;;;;9.27;6.88;;;17.70;99.90;;;;;;5117790;27;20023;-69
2023/06/09 00:05:11;;;;;;;9.10;6.82;;;17.70;99.90;;;;;;5115934;28;20023;-68
2023/06/09 00:07:37;;;;;;;7.28;6.40;;;17.70;99.90;;;;;;5115989;28;20036;-68
2023/06/09 00:10:04;;;;;;;10.90;6.60;;;17.60;99.90;;;;;;5115842;28;20127;-68
2023/06/09 00:12:30;;;;;;;7.43;6.60;;;17.60;99.90;;;;;;5116826;27;20062;-68
2023/06/09 00:14:55;;;;;;;10.32;6.60;;;17.60;99.90;;;;;;5119044;27;20059;-68
2023/06/09 00:17:24;;;;;;;9.40;6.55;;;17.50;99.90;;;;;;5116017;28;20521;-68
2023/06/09 00:19:52;;;;;;;9.20;7.90;;;17.50;99.90;;;;;;5115087;28;20063;-68
2023/06/09 00:22:19;;;;;;;7.82;6.40;;;17.50;99.90;;;;;;5116783;27;20383;-68
2023/06/09 00:24:45;;;;;;;9.95;6.47;;;17.60;99.90;;;;;;5115210;28;20084;-69
2023/06/09 00:27:11;;;;;;;7.05;6.20;;;17.60;99.90;;;;;;5115575;28;20107;-68
2023/06/09 00:29:37;;;;;;;7.47;6.78;;;17.50;99.90;;;;;;5115962;28;20052;-68
2023/06/09 00:32:04;;;;;;;7.55;6.55;;;17.50;99.90;;;;;;5115164;28;20464;-69
2023/06/09 00:34:30;;;;;;;8.55;7.00;;;17.60;99.90;;;;;;5115520;28;20024;-68
2023/06/09 00:36:56;;;;;;;7.53;6.82;;;17.60;99.90;;;;;;5114827;28;20119;-68
2023/06/09 00:39:22;;;;;;;7.38;6.55;;;17.60;99.90;;;;;;5097204;28;20082;-68
2023/06/09 00:41:48;;;;;;;9.15;6.18;;;17.70;99.90;;;;;;5115383;28;20036;-68
2023/06/09 00:44:14;;;;;;;8.10;6.50;;;17.70;99.90;;;;;;5115319;28;20058;-68
2023/06/09 00:46:41;;;;;;;8.00;7.05;;;17.70;99.90;;;;;;5114718;28;20059;-68
2023/06/09 00:49:08;;;;;;;10.68;7.30;;;17.70;99.90;;;;;;5115596;28;20038;-68
2023/06/09 00:51:36;;;;;;;8.68;7.47;;;17.70;99.90;;;;;;5115056;28;20028;-68
2023/06/09 00:54:02;;;;;;;10.25;6.78;;;17.70;99.90;;;;;;5114540;28;20115;-68
2023/06/09 00:56:29;;;;;;;10.52;6.60;;;17.60;99.90;;;;;;5115389;28;20096;-68
2023/06/09 00:58:55;;;;;;;9.90;6.80;;;17.70;99.90;;;;;;5114606;28;20024;-68
2023/06/09 01:01:20;;;;;;;7.88;7.00;;;17.60;99.90;;;;;;5115161;28;20107;-68
2023/06/09 01:03:49;;;;;;;7.55;6.80;;;17.60;99.90;;;;;;5114471;28;20024;-68
2023/06/09 01:06:30;;;;;;;10.60;7.45;;;17.60;99.90;;;;;;5114769;28;20028;-68
2023/06/09 01:09:21;;;;;;;8.68;7.43;;;17.60;99.90;;;;;;5114531;28;20377;-67
2023/06/09 01:11:56;;;;;;;9.27;6.93;;;17.60;99.90;;;;;;5114146;28;20066;-69
2023/06/09 01:14:31;;;;;;;8.00;7.13;;;17.60;99.90;;;;;;5114590;28;20028;-69
2023/06/09 01:17:08;;;;;;;10.40;7.43;;;17.60;99.90;;;;;;5114650;28;20038;-69
2023/06/09 01:19:47;;;;;;;7.43;6.72;;;17.60;99.90;;;;;;5096617;28;20023;-69
2023/06/09 01:22:55;;;;;;;9.80;7.53;;;17.60;99.90;;;;;;5114676;28;20051;-69
2023/06/09 01:25:34;;;;;;;8.00;7.20;;;17.60;99.90;;;;;;5114454;28;20030;-69
2023/06/09 01:28:06;;;;;;;9.27;7.70;;;17.60;99.90;;;;;;5114130;28;20034;-69
2023/06/09 01:30:33;;;;;;;8.73;6.97;;;17.60;99.90;;;;;;5113580;28;20467;-69
2023/06/09 01:33:03;;;;;;;9.20;8.20;;;17.70;99.90;;;;;;5113965;28;20459;-69
2023/06/09 01:35:29;;;;;;;8.02;7.25;;;17.60;99.90;;;;;;5096214;28;20122;-69
2023/06/09 01:37:55;;;;;;;10.20;7.70;;;17.70;99.90;;;;;;5113823;28;20024;-69
2023/06/09 01:40:21;;;;;;;9.55;7.63;;;17.70;99.90;;;;;;5114259;28;20026;-69
2023/06/09 01:42:47;;;;;;;11.35;7.80;;;17.70;99.90;;;;;;5113807;28;20114;-70
2023/06/09 01:45:13;;;;;;;9.07;7.40;;;17.70;99.90;;;;;;5114182;28;20535;-69
2023/06/09 01:47:39;;;;;;;9.30;7.63;;;17.70;99.90;;;;;;5114389;28;20038;-70
2023/06/09 01:50:13;;;;;;;8.90;8.00;;;17.60;99.90;;;;;;5113538;28;20106;-69
2023/06/09 01:52:49;;;;;;;8.55;7.60;;;17.70;99.90;;;;;;5119471;27;20448;-69
2023/06/09 01:55:27;;;;;;;8.90;7.90;;;17.60;99.90;;;;;;5134588;27;20510;-70
2023/06/09 01:58:17;;;;;;;9.05;8.10;;;17.70;99.90;;;;;;5134122;27;20353;-67
2023/06/09 02:00:46;;;;;;;9.13;7.95;;;17.60;99.90;;;;;;5134454;27;20031;-70
2023/06/09 02:03:15;;;;;;;10.02;7.97;;;17.60;99.90;;;;;;5134360;27;20110;-69
2023/06/09 02:05:43;;;;;;;8.85;7.97;;;17.60;99.90;;;;;;5133909;27;20544;-69
2023/06/09 02:08:09;;;;;;;10.32;8.70;;;17.60;99.90;;;;;;5133842;27;20122;-68
2023/06/09 02:10:36;;;;;;;10.32;8.35;;;17.70;99.90;;;;;;5133869;27;20081;-68
2023/06/09 02:13:15;;;;;;;11.30;8.43;;;17.60;99.90;;;;;;5133731;27;20019;-68
2023/06/09 02:15:45;;;;;;;8.93;8.00;;;17.50;99.90;;;;;;5134170;27;20023;-67
2023/06/09 02:18:12;;;;;;;9.50;8.35;;;17.50;99.90;;;;;;5134208;27;20031;-67
2023/06/09 02:20:44;;;;;;;10.07;7.97;;;17.50;99.90;;;;;;5129100;27;20046;-69
2023/06/09 02:23:11;;;;;;;10.10;7.60;;;17.50;99.90;;;;;;5133669;27;20031;-69
2023/06/09 02:25:36;;;;;;;8.82;7.90;;;17.40;99.90;;;;;;5133933;27;20088;-69
2023/06/09 02:28:06;;;;;;;8.10;7.18;;;17.40;99.90;;;;;;5133630;27;20060;-69
2023/06/09 02:30:33;;;;;;;12.80;8.55;;;17.30;99.90;;;;;;5134048;27;20019;-69
2023/06/09 02:33:00;;;;;;;9.48;8.10;;;17.30;99.90;;;;;;5133502;27;20103;-70
2023/06/09 02:35:26;;;;;;;8.48;7.40;;;17.40;99.90;;;;;;5134072;27;20023;-69
2023/06/09 02:37:54;;;;;;;10.13;8.27;;;17.40;99.90;;;;;;5133518;27;20059;-70
2023/06/09 02:40:21;;;;;;;8.70;7.55;;;17.40;99.90;;;;;;5133987;27;20057;-69
2023/06/09 02:42:47;;;;;;;8.95;7.50;;;17.40;99.90;;;;;;5133573;27;20024;-69
2023/06/09 02:45:12;;;;;;;10.52;7.93;;;17.40;99.90;;;;;;5133018;28;20043;-69
2023/06/09 02:47:39;;;;;;;9.55;8.40;;;17.40;99.90;;;;;;5133702;28;20364;-69
2023/06/09 02:50:05;;;;;;;9.50;8.45;;;17.40;99.90;;;;;;5133154;28;20034;-69
2023/06/09 02:52:32;;;;;;;10.80;8.13;;;17.40;99.90;;;;;;5133623;28;20102;-69
2023/06/09 02:54:58;;;;;;;10.15;7.82;;;17.30;99.90;;;;;;5133158;28;20043;-69
2023/06/09 02:57:25;;;;;;;13.40;8.38;;;17.30;99.90;;;;;;5133696;28;20027;-69
2023/06/09 02:59:51;;;;;;;10.85;7.75;;;17.30;99.90;;;;;;5132962;28;20027;-70
2023/06/09 03:02:17;;;;;;;9.10;7.97;;;17.30;99.90;;;;;;5133548;28;20064;-69
2023/06/09 03:04:42;;;;;;;8.93;8.02;;;17.30;99.90;;;;;;5133535;28;20033;-67
2023/06/09 03:07:09;;;;;;;10.82;8.48;;;17.30;99.90;;;;;;5133133;28;20548;-69
2023/06/09 03:09:35;;;;;;;9.32;7.68;;;17.30;99.90;;;;;;5133496;28;20027;-69
2023/06/09 03:12:01;;;;;;;9.23;7.45;;;17.20;99.90;;;;;;5133159;28;20027;-70
2023/06/09 03:14:27;;;;;;;12.35;7.55;;;17.20;99.90;;;;;;5133254;28;20024;-69
2023/06/09 03:16:53;;;;;;;9.65;7.90;;;17.20;99.90;;;;;;5133081;28;20027;-70
2023/06/09 03:19:20;;;;;;;9.80;7.63;;;17.20;99.90;;;;;;5133502;28;20034;-69
2023/06/09 03:21:46;;;;;;;12.25;8.77;;;17.20;99.90;;;;;;5133361;28;20027;-69
2023/06/09 03:24:12;;;;;;;9.50;8.00;;;17.20;99.90;;;;;;5132970;28;20035;-69
2023/06/09 03:26:37;;;;;;;11.65;8.43;;;17.20;99.90;;;;;;5133181;28;20039;-68
2023/06/09 03:29:03;;;;;;;9.13;8.23;;;17.20;99.90;;;;;;5132725;28;20055;-68
2023/06/09 03:31:29;;;;;;;9.85;8.70;;;17.20;99.90;;;;;;5133277;28;20079;-68
2023/06/09 03:33:56;;;;;;;10.85;8.57;;;17.10;99.90;;;;;;5132543;28;20023;-68
2023/06/09 03:36:22;;;;;;;12.77;8.95;;;17.10;99.90;;;;;;5133200;28;20023;-68
2023/06/09 03:38:48;;;;;;;10.93;8.77;;;17.10;99.90;;;;;;5133111;28;20038;-68
2023/06/09 03:41:14;;;;;;;11.02;8.75;;;17.10;99.90;;;;;;5132783;28;20027;-69
2023/06/09 03:43:40;;;;;;;10.48;8.93;;;17.10;99.90;;;;;;5133162;28;20545;-68
2023/06/09 03:46:06;;;;;;;12.00;8.80;;;17.10;99.90;;;;;;5129218;28;20100;-68
2023/06/09 03:48:31;;;;;;;13.70;9.27;;;17.10;99.90;;;;;;5112539;28;20060;-68
2023/06/09 03:50:57;;;;;;;9.95;8.68;;;17.10;99.90;;;;;;5111797;28;20122;-69
2023/06/09 03:53:23;;;;;;;9.93;8.18;;;17.10;99.90;;;;;;5113755;28;20020;-68
2023/06/09 03:55:48;;;;;;;9.05;8.07;;;17.10;99.90;;;;;;5116236;28;20031;-68
2023/06/09 03:58:14;;;;;;;10.02;9.02;;;17.10;99.90;;;;;;5115622;28;20030;-68
2023/06/09 04:00:40;;;;;;;12.57;8.40;;;17.10;99.90;;;;;;5116157;28;20023;-68
2023/06/09 04:03:09;;;;;;;8.95;7.93;;;17.10;99.90;;;;;;5115604;28;20027;-68
2023/06/09 04:05:34;;;;;;;10.18;8.23;;;17.10;99.90;;;;;;5115673;28;20391;-68
2023/06/09 04:08:00;;;;;;;10.60;8.50;;;17.10;99.90;;;;;;5115492;28;20028;-68
2023/06/09 04:10:26;;;;;;;8.90;7.53;;;17.10;99.90;;;;;;5116249;28;20016;-68
2023/06/09 04:12:51;;;;;;;12.35;8.35;;;17.10;99.90;;;;;;5115904;28;20452;-68
2023/06/09 04:15:18;;;;;;;11.52;8.20;;;17.10;99.90;;;;;;5115687;28;20023;-68
2023/06/09 04:17:43;;;;;;;12.15;7.93;;;17.10;99.90;;;;;;5132703;27;20023;-68
2023/06/09 04:20:09;;;;;;;9.20;7.60;;;17.10;99.90;;;;;;5135988;27;20390;-68
2023/06/09 04:22:35;;;;;;;10.07;8.00;;;17.10;99.90;;;;;;5136348;27;20058;-68
2023/06/09 04:25:04;;;;;;;10.45;7.38;;;17.00;99.90;;;;;;5135799;27;20027;-68
2023/06/09 04:27:30;;;;;;;12.25;7.85;;;17.00;99.90;;;;;;5132834;27;20038;-69
2023/06/09 04:29:57;;;;;;;10.88;7.95;;;17.00;99.90;;;;;;5136081;27;20019;-68
2023/06/09 04:32:23;;;;;;;8.57;7.68;;;17.00;99.90;;;;;;5136071;27;20152;-68
2023/06/09 04:34:49;;;;;;;10.00;7.78;;;17.00;99.90;;;;;;5135985;27;20027;-68
2023/06/09 04:37:15;;;;;;;11.88;7.75;;;17.00;99.90;;;;;;5135636;27;20530;-68
2023/06/09 04:39:45;;;;;;;10.73;8.20;;;17.00;99.90;;;;;;5135987;27;20463;-68
2023/06/09 04:42:12;;;;;;;12.43;7.82;;;17.00;99.90;;;;;;5135679;27;20375;-69
2023/06/09 04:44:39;;;;;;;9.65;7.82;;;17.00;99.90;;;;;;5135978;27;20027;-68
2023/06/09 04:47:05;;;;;;;8.48;7.50;;;17.10;99.90;;;;;;5135308;27;20050;-68
2023/06/09 04:49:31;;;;;;;9.23;7.70;;;17.10;99.90;;;;;;5135940;27;20031;-68
2023/06/09 04:51:59;;;;;;;13.13;7.38;;;17.10;99.90;;;;;;5135538;27;20475;-68
2023/06/09 04:54:25;;;;;;;8.65;7.70;;;17.10;99.90;;;;;;5135641;27;20054;-68
2023/06/09 04:56:57;;;;;;;9.77;8.40;;;17.10;99.90;;;;;;5135723;27;20031;-68
2023/06/09 04:59:28;;;;;;;9.48;8.15;;;17.10;99.90;;;;;;5135709;27;20077;-68
2023/06/09 05:01:55;;;;;;;8.25;7.13;;;17.10;99.90;;;;;;5135579;27;20035;-68
2023/06/09 05:04:20;;;;;;;8.00;7.22;;;17.10;99.90;;;;;;5135044;27;20146;-68
2023/06/09 05:06:46;;;;;;;9.68;7.53;;;17.20;99.90;;;;;;5135467;27;20031;-68
2023/06/09 05:09:13;;;;;;;11.20;7.80;;;17.20;99.90;;;;;;5134733;27;20028;-68
2023/06/09 05:11:38;;;;;;;8.20;6.63;;;17.10;99.90;;;;;;5135301;27;20054;-68
2023/06/09 05:14:07;;;;;;;10.07;7.57;;;17.20;99.90;;;;;;5134774;27;20069;-69
2023/06/09 05:16:36;;;;;;;8.75;7.30;;;17.20;99.90;;;;;;5135136;27;20027;-68
2023/06/09 05:19:02;;;;;;;9.10;7.53;;;17.20;99.90;;;;;;5134763;27;20019;-69
2023/06/09 05:21:27;;;;;;;10.82;7.47;;;17.20;99.90;;;;;;5135259;27;20026;-68
2023/06/09 05:23:53;;;;;;;8.50;6.70;;;17.20;99.90;;;;;;5134907;27;20031;-68
2023/06/09 05:26:19;;;;;;;9.57;7.03;;;17.30;99.90;;;;;;5134263;27;20035;-68
2023/06/09 05:28:46;;;;;;;12.95;7.47;;;17.20;99.90;;;;;;5135190;27;20023;-68
2023/06/09 05:31:12;;;;;;;11.90;7.05;;;17.20;99.90;;;;;;5134514;27;20022;-68
2023/06/09 05:33:38;;;;;;;8.88;7.28;;;17.30;99.90;;;;;;5135076;27;20405;-68
2023/06/09 05:36:04;;;;;;;9.65;6.85;;;17.30;99.90;;;;;;5134384;27;20027;-68
2023/06/09 05:38:30;;;;;;;8.32;7.38;;;17.40;99.90;;;;;;5134634;27;20058;-68
2023/06/09 05:40:55;;;;;;;7.30;6.35;;;17.40;99.90;;;;;;5134439;27;20384;-68
2023/06/09 05:43:25;;;;;;;10.55;6.50;;;17.40;99.90;;;;;;5134310;27;20045;-68
2023/06/09 05:45:50;;;;;;;11.95;7.45;;;17.40;99.90;;;;;;5128780;27;20071;-68
2023/06/09 05:48:16;;;;;;;10.30;6.63;;;17.40;99.90;;;;;;5113714;28;20456;-68
2023/06/09 05:50:42;;;;;;;7.18;6.22;;;17.50;99.90;;;;;;5113986;28;20044;-68
2023/06/09 05:53:07;;;;;;;8.88;6.80;;;17.50;99.90;;;;;;5113583;28;20028;-68
2023/06/09 05:55:33;;;;;;;10.07;6.85;;;17.50;99.90;;;;;;5114318;28;20056;-68
2023/06/09 05:58:00;;;;;;;11.77;7.13;;;17.50;99.90;;;;;;5114037;28;20104;-68
2023/06/09 06:00:29;;;;;;;8.27;6.93;;;17.50;99.90;;;;;;5113410;28;20076;-68
2023/06/09 06:02:55;;;;;;;7.22;6.53;;;17.50;99.90;;;;;;5113745;28;20530;-68
2023/06/09 06:05:21;;;;;;;10.65;6.63;;;17.50;99.90;;;;;;5113209;28;20076;-69
2023/06/09 06:07:47;;;;;;;7.50;6.70;;;17.50;99.90;;;;;;5095668;28;20023;-68
2023/06/09 06:10:13;;;;;;;7.65;6.85;;;17.50;99.90;;;;;;5113239;28;20030;-68
2023/06/09 06:12:39;;;;;;;9.43;6.75;;;17.50;99.90;;;;;;5113347;28;20491;-68
2023/06/09 06:15:05;;;;;;;8.38;6.88;;;17.60;99.90;;;;;;5113053;28;20039;-70
2023/06/09 06:17:31;;;;;;;9.30;7.45;;;17.60;99.90;;;;;;5113002;28;20034;-68
2023/06/09 06:19:57;;;;;;;9.77;6.93;;;17.60;99.90;;;;;;5113349;28;20027;-68
2023/06/09 06:22:23;;;;;;;10.98;6.57;;;17.70;99.90;;;;;;5112729;28;20456;-68
2023/06/09 06:24:49;;;;;;;7.25;6.30;;;17.70;99.90;;;;;;5121246;27;20135;-68
2023/06/09 06:27:15;;;;;;;8.10;6.78;;;17.70;99.90;;;;;;5133545;27;20508;-68
2023/06/09 06:29:40;;;;;;;8.90;6.07;;;17.70;99.90;;;;;;5133856;27;20387;-69
2023/06/09 06:32:08;;;;;;;10.77;6.28;;;17.70;99.90;;;;;;5133303;27;20106;-69
2023/06/09 06:34:33;;;;;;;9.30;6.80;;;17.70;99.90;;;;;;5133897;27;20416;-68
2023/06/09 06:36:59;;;;;;;11.32;6.80;;;17.70;99.90;;;;;;5133613;27;20106;-68
2023/06/09 06:39:25;;;;;;;6.68;5.95;;;17.70;99.90;;;;;;5133266;27;20026;-68
2023/06/09 06:41:50;;;;;;;7.63;5.47;;;17.80;99.90;;;;;;5133810;27;20027;-68
2023/06/09 06:44:16;;;;;;;6.93;6.00;;;17.80;99.90;;;;;;5133386;27;20031;-68
2023/06/09 06:46:41;;;;;;;9.93;6.80;;;17.80;99.90;;;;;;5133875;27;20047;-68
2023/06/09 06:49:07;;;;;;;8.15;6.95;;;17.80;99.90;;;;;;5133236;28;20058;-72
2023/06/09 06:51:32;;;;;;;11.82;6.97;;;17.80;99.90;;;;;;5133629;28;20023;-68
2023/06/09 06:53:58;;;;;;;10.88;7.30;;;17.70;99.90;;;;;;5115215;28;20316;-68
2023/06/09 06:56:25;;;;;;;13.77;7.68;;;17.80;99.90;;;;;;5133070;28;20459;-68
2023/06/09 06:58:52;;;;;;;11.10;7.05;;;17.90;99.90;;;;;;5133210;28;20464;-68
2023/06/09 07:01:20;;;;;;;10.85;6.82;;;17.90;99.90;;;;;;5133494;28;20092;-68
2023/06/09 07:03:46;;;;;;;12.02;8.13;;;18.00;99.90;;;;;;5133398;28;20031;-68
2023/06/09 07:06:12;;;;;;;11.20;8.05;;;18.00;99.90;;;;;;5132983;28;20134;-68
2023/06/09 07:08:37;;;;;;;16.25;9.05;;;18.00;99.90;;;;;;5114844;28;20415;-69
2023/06/09 07:11:03;;;;;;;15.25;9.55;;;18.00;99.90;;;;;;5133352;28;20023;-68
2023/06/09 07:13:29;;;;;;;12.23;8.27;;;18.10;99.90;;;;;;5132968;28;20113;-69
2023/06/09 07:15:55;;;;;;;14.38;9.30;;;18.10;99.90;;;;;;5133417;28;20361;-69
2023/06/09 07:18:20;;;;;;;14.57;10.65;;;18.10;99.90;;;;;;5132950;28;20031;-68
2023/06/09 07:20:48;;;;;;;11.63;9.00;;;18.20;99.90;;;;;;5133429;28;20023;-68
2023/06/09 07:23:14;;;;;;;15.52;9.18;;;18.10;99.90;;;;;;5133017;28;20363;-70
2023/06/09 07:25:39;;;;;;;12.80;8.88;;;18.20;99.90;;;;;;5132956;28;20031;-67
2023/06/09 07:28:05;;;;;;;10.73;8.63;;;18.10;99.90;;;;;;5134227;27;20047;-69
2023/06/09 07:30:31;;;;;;;10.27;8.63;;;18.10;99.90;;;;;;5136793;27;20027;-67
2023/06/09 07:32:56;;;;;;;10.32;8.13;;;18.20;99.90;;;;;;5137069;27;20031;-68
2023/06/09 07:35:23;;;;;;;17.25;9.90;;;18.20;99.90;;;;;;5136761;27;20515;-68
2023/06/09 07:37:50;;;;;;;15.65;8.98;;;18.30;99.90;;;;;;5137019;27;20101;-68
2023/06/09 07:40:16;;;;;;;12.27;8.77;;;18.30;99.90;;;;;;5136642;27;20027;-69
2023/06/09 07:42:41;;;;;;;13.18;8.38;;;18.30;99.90;;;;;;5136752;27;20050;-69
2023/06/09 07:45:08;;;;;;;10.85;7.57;;;18.40;99.90;;;;;;5136617;27;20096;-68
2023/06/09 07:47:33;;;;;;;8.50;6.68;;;18.40;99.90;;;;;;5136410;27;20110;-68
2023/06/09 07:49:59;;;;;;;9.98;5.95;;;18.40;99.90;;;;;;5134982;27;20433;-68
2023/06/09 07:52:25;;;;;;;8.65;6.20;;;18.40;99.90;;;;;;5136116;27;20041;-69
2023/06/09 07:54:51;;;;;;;8.38;6.30;;;18.40;99.90;;;;;;5136671;27;20464;-68
2023/06/09 07:57:16;;;;;;;8.80;6.57;;;18.40;99.90;;;;;;5136064;27;20031;-69
2023/06/09 07:59:42;;;;;;;9.40;7.13;;;18.40;99.90;;;;;;5136849;27;20023;-68
2023/06/09 08:02:08;;;;;;;9.98;7.88;;;18.40;99.90;;;;;;5136680;27;20374;-68
2023/06/09 08:04:34;;;;;;;17.08;9.80;;;18.40;99.90;;;;;;5135944;27;20023;-69
2023/06/09 08:06:59;;;;;;;17.13;10.30;;;18.40;99.90;;;;;;5136397;27;20077;-69
2023/06/09 08:09:26;;;;;;;19.75;12.93;;;18.50;99.90;;;;;;5136053;27;20064;-69
2023/06/09 08:11:52;;;;;;;23.17;13.38;;;18.50;99.90;;;;;;5136262;27;20023;-69
2023/06/09 08:14:17;;;;;;;18.95;12.10;;;18.60;99.90;;;;;;5135651;27;20102;-69
2023/06/09 08:16:43;;;;;;;19.23;10.93;;;18.60;99.90;;;;;;5136447;27;20414;-69
2023/06/09 08:19:09;;;;;;;16.15;10.35;;;18.70;99.90;;;;;;5133076;27;20589;-68
2023/06/09 08:21:42;;;;;;;14.57;9.95;;;18.70;99.90;;;;;;5126355;27;20072;-69
2023/06/09 08:24:08;;;;;;;17.40;10.02;;;18.70;99.90;;;;;;5115666;28;20027;-68
2023/06/09 08:26:34;;;;;;;13.93;8.60;;;18.70;99.90;;;;;;5114772;28;20044;-69
2023/06/09 08:29:01;;;;;;;13.65;8.55;;;18.70;99.90;;;;;;5115547;28;20036;-69
2023/06/09 08:31:27;;;;;;;13.38;8.15;;;18.70;99.90;;;;;;5114764;28;20423;-69
2023/06/09 08:33:54;;;;;;;11.70;7.82;;;18.70;99.90;;;;;;5115513;28;20023;-68
2023/06/09 08:36:20;;;;;;;10.32;7.25;;;18.70;99.90;;;;;;5115091;28;20507;-69
2023/06/09 08:38:46;;;;;;;11.05;7.22;;;18.60;99.90;;;;;;5114949;28;20528;-68
2023/06/09 08:41:14;;;;;;;10.63;6.75;;;18.60;99.90;;;;;;5115223;28;20027;-68
2023/06/09 08:43:40;;;;;;;14.77;8.55;;;18.60;99.90;;;;;;5115324;28;20525;-68
2023/06/09 08:46:09;;;;;;;15.23;7.90;;;18.60;99.90;;;;;;5114929;28;20048;-68
2023/06/09 08:48:39;;;;;;;11.70;7.20;;;18.50;99.90;;;;;;5114671;28;20463;-69
2023/06/09 08:51:05;;;;;;;9.57;6.72;;;18.50;99.90;;;;;;5114992;28;20031;-68
2023/06/09 08:53:31;;;;;;;9.25;7.75;;;18.60;99.90;;;;;;5114757;28;20115;-68
2023/06/09 08:55:59;;;;;;;8.63;6.80;;;18.60;99.90;;;;;;5114836;28;20107;-68
2023/06/09 08:58:26;;;;;;;9.75;7.03;;;18.60;99.90;;;;;;5114594;28;20016;-68
2023/06/09 09:00:53;;;;;;;7.28;6.13;;;18.60;99.90;;;;;;5114772;28;20028;-69
2023/06/09 09:03:19;;;;;;;8.27;5.63;;;18.60;99.90;;;;;;5114092;28;20039;-70
2023/06/09 09:05:45;;;;;;;10.20;6.10;;;18.60;99.90;;;;;;5114792;28;20035;-69
2023/06/09 09:08:12;;;;;;;8.43;5.78;;;18.60;99.90;;;;;;5114845;28;20070;-69
2023/06/09 09:10:40;;;;;;;7.15;5.45;;;18.70;99.90;;;;;;5114305;28;20396;-69
2023/06/09 09:13:09;;;;;;;8.00;6.00;;;18.90;99.90;;;;;;5114812;28;20133;-69
2023/06/09 09:15:35;;;;;;;9.38;6.35;;;18.90;99.90;;;;;;5113942;28;20547;-69
2023/06/09 09:18:00;;;;;;;7.43;6.13;;;19.00;99.90;;;;;;5114375;28;20487;-69
2023/06/09 09:20:34;;;;;;;9.63;6.47;;;19.10;99.90;;;;;;5114231;28;20036;-69
2023/06/09 09:23:00;;;;;;;9.00;7.22;;;19.20;99.90;;;;;;5114296;28;20388;-69
2023/06/09 09:25:30;;;;;;;6.82;5.47;;;19.30;99.90;;;;;;5114058;28;20024;-69
2023/06/09 09:28:07;;;;;;;8.10;6.18;;;19.40;99.90;;;;;;5114518;28;20028;-69
2023/06/09 09:30:50;;;;;;;9.43;6.70;;;19.60;99.90;;;;;;5113828;28;20100;-69
2023/06/09 09:33:20;;;;;;;9.23;7.05;;;19.50;99.90;;;;;;5114524;28;20023;-69
2023/06/09 09:35:50;;;;;;;9.20;6.43;;;19.60;99.90;;;;;;5096780;28;20184;-68
2023/06/09 09:38:19;;;;;;;8.32;6.28;;;19.80;99.90;;;;;;5114314;28;20030;-69
2023/06/09 09:40:47;;;;;;;9.25;6.82;;;20.00;99.90;;;;;;5114237;28;20020;-69
2023/06/09 09:43:15;;;;;;;11.35;7.53;;;20.00;99.90;;;;;;5113838;28;20023;-69
2023/06/09 09:45:50;;;;;;;9.48;7.13;;;20.00;99.90;;;;;;5094494;28;20613;-70
2023/06/09 09:48:19;;;;;;;10.00;7.50;;;20.20;99.90;;;;;;5113725;28;20456;-69
2023/06/09 09:50:48;;;;;;;10.30;8.15;;;20.40;99.90;;;;;;5112412;28;20490;-69
2023/06/09 09:53:14;;;;;;;11.18;7.93;;;20.50;99.90;;;;;;5113837;28;20027;-69
2023/06/09 09:55:47;;;;;;;8.95;7.70;;;20.60;99.90;;;;;;5112672;28;20806;-69
2023/06/09 09:58:14;;;;;;;9.80;7.57;;;20.70;99.90;;;;;;5122261;27;20023;-70
2023/06/09 10:00:46;;;;;;;9.80;8.25;;;20.80;99.90;;;;;;5133649;27;20019;-69
2023/06/09 10:03:18;;;;;;;10.20;6.93;;;20.90;99.90;;;;;;5134168;27;20110;-69
2023/06/09 10:05:48;;;;;;;10.40;8.52;;;20.90;99.90;;;;;;5133759;27;20463;-69
2023/06/09 10:08:27;;;;;;;11.82;8.13;;;21.00;99.90;;;;;;5134123;27;20031;-69
2023/06/09 10:10:56;;;;;;;11.05;7.93;;;21.20;99.90;;;;;;5134028;27;20019;-69
2023/06/09 10:13:22;;;;;;;10.32;7.78;;;21.30;99.90;;;;;;5133891;27;20029;-75
2023/06/09 10:15:51;;;;;;;9.93;8.93;;;21.30;99.90;;;;;;5133783;27;20391;-70
2023/06/09 10:18:17;;;;;;;12.25;8.05;;;21.30;99.90;;;;;;5133818;27;20459;-69
2023/06/09 10:20:43;;;;;;;9.68;8.35;;;21.40;99.90;;;;;;5133703;27;20072;-69
2023/06/09 10:23:09;;;;;;;10.05;7.90;;;21.40;99.90;;;;;;5116082;27;20035;-69
2023/06/09 10:25:35;;;;;;;9.98;7.30;;;21.30;99.90;;;;;;5112647;28;20027;-69
2023/06/09 10:28:01;;;;;;;10.55;9.27;;;21.40;99.90;;;;;;5115593;27;20360;-69
2023/06/09 10:30:27;;;;;;;11.63;7.70;;;21.40;99.90;;;;;;5113334;28;20038;-69
2023/06/09 10:33:08;;;;;;;9.10;7.35;;;21.30;99.90;;;;;;5113139;28;20028;-70
2023/06/09 10:35:38;;;;;;;9.93;7.53;;;21.30;99.90;;;;;;5112944;28;20035;-68
2023/06/09 10:38:23;;;;;;;10.93;7.65;;;21.40;99.90;;;;;;5112985;28;20472;-69
2023/06/09 10:40:59;;;;;;;8.02;7.22;;;21.40;99.90;;;;;;5113187;28;20062;-69
2023/06/09 10:43:59;;;;;;;13.07;8.02;;;21.50;99.90;;;;;;5112938;28;20024;-69
2023/06/09 10:46:41;;;;;;;12.90;8.50;;;21.40;99.90;;;;;;5112692;28;20056;-72
2023/06/09 10:49:07;;;;;;;9.38;7.78;;;21.50;99.90;;;;;;5112779;28;20434;-69
2023/06/09 10:51:39;;;;;;;10.32;8.45;;;21.50;99.90;;;;;;5112547;28;20016;-69
2023/06/09 10:54:10;;;;;;;9.60;7.60;;;21.50;99.90;;;;;;5113204;28;20073;-68
2023/06/09 10:56:40;;;;;;;10.13;7.55;;;21.40;99.90;;;;;;5112251;28;20375;-69
2023/06/09 10:59:05;;;;;;;12.35;7.82;;;21.40;99.90;;;;;;5112988;28;20081;-69
2023/06/09 11:01:32;;;;;;;11.93;8.70;;;21.50;99.90;;;;;;5112619;28;20028;-69
2023/06/09 11:03:58;;;;;;;11.43;8.27;;;21.60;99.90;;;;;;5117107;28;20063;-69
2023/06/09 11:06:24;;;;;;;10.15;8.10;;;21.70;99.90;;;;;;5117044;28;20070;-69
2023/06/09 11:09:14;;;;;;;10.80;8.60;;;21.80;99.90;;;;;;5116727;28;20035;-69
2023/06/09 11:11:51;;;;;;;11.27;8.15;;;21.90;99.90;;;;;;5116719;28;20077;-69
2023/06/09 11:14:51;;;;;;;14.25;8.45;;;21.80;99.90;;;;;;5117011;28;20031;-68
2023/06/09 11:17:25;;;;;;;9.73;7.93;;;21.80;99.90;;;;;;5111629;28;20039;-68
2023/06/09 11:19:52;;;;;;;9.98;7.80;;;21.90;99.90;;;;;;5116530;28;20066;-68
2023/06/09 11:22:17;;;;;;;11.13;7.72;;;21.90;99.90;;;;;;5116804;28;20023;-68
2023/06/09 11:24:51;;;;;;;10.77;7.90;;;21.90;99.90;;;;;;5116434;28;20019;-69
2023/06/09 11:27:18;;;;;;;8.23;7.43;;;21.90;99.90;;;;;;5098390;28;20437;-68
2023/06/09 11:30:04;;;;;;;8.00;7.20;;;21.90;99.90;;;;;;5116082;28;20020;-69
2023/06/09 11:32:58;;;;;;;10.30;8.07;;;21.90;99.90;;;;;;5114344;28;20040;-69
2023/06/09 11:35:30;;;;;;;7.95;7.15;;;21.90;99.90;;;;;;5116537;28;20028;-69
2023/06/09 11:38:06;;;;;;;8.68;7.22;;;22.00;99.90;;;;;;5116561;28;20495;-68
2023/06/09 11:40:36;;;;;;;8.95;7.68;;;21.90;99.90;;;;;;5116147;28;20055;-69
2023/06/09 11:43:06;;;;;;;10.07;7.10;;;21.90;99.90;;;;;;5116805;28;20032;-68
2023/06/09 11:45:32;;;;;;;8.48;7.18;;;21.90;99.90;;;;;;5115712;28;20140;-68
2023/06/09 11:47:59;;;;;;;9.15;6.88;;;21.70;99.90;;;;;;5116649;28;20123;-69
2023/06/09 11:50:36;;;;;;;7.45;6.72;;;21.70;99.90;;;;;;5116369;28;20032;-68
2023/06/09 11:53:07;;;;;;;8.45;7.65;;;21.60;99.90;;;;;;5116431;28;20107;-68
2023/06/09 11:55:32;;;;;;;;;;;21.60;99.90;;;;;;5117331;27;20053;-69
2023/06/09 11:57:59;;;;;;;7.47;6.60;;;21.70;99.90;;;;;;5115907;28;20321;-68
2023/06/09 12:00:26;;;;;;;8.70;7.05;;;21.70;99.90;;;;;;5116134;28;20027;-68
2023/06/09 12:02:53;;;;;;;8.35;6.40;;;21.80;99.90;;;;;;5115458;28;20329;-68
2023/06/09 12:05:19;;;;;;;8.13;7.32;;;21.80;99.90;;;;;;5115773;28;20421;-68
2023/06/09 12:07:46;;;;;;;8.15;7.32;;;21.80;99.90;;;;;;5115434;28;20028;-68
2023/06/09 12:10:17;;;;;;;7.10;6.00;;;21.80;99.90;;;;;;5115983;28;20080;-68
2023/06/09 12:12:47;;;;;;;8.57;6.70;;;21.80;99.90;;;;;;5115504;28;20032;-69
2023/06/09 12:15:15;;;;;;;7.15;6.45;;;21.80;99.90;;;;;;5115300;28;20468;-69
2023/06/09 12:17:40;;;;;;;9.50;7.32;;;21.80;99.90;;;;;;5132490;27;20035;-69
2023/06/09 12:20:31;;;;;;;7.82;6.60;;;21.70;99.90;;;;;;5135508;27;20379;-69
2023/06/09 12:22:58;;;;;;;7.25;6.15;;;21.80;99.90;;;;;;5117827;27;20072;-69
2023/06/09 12:25:25;;;;;;;8.60;6.50;;;21.90;99.90;;;;;;5136163;27;20110;-69
2023/06/09 12:27:56;;;;;;;9.13;6.95;;;21.90;99.90;;;;;;5135725;27;20140;-69
2023/06/09 12:30:47;;;;;;;8.18;6.70;;;21.90;99.90;;;;;;5136295;27;20171;-69
2023/06/09 12:33:17;;;;;;;12.82;6.65;;;21.90;99.90;;;;;;5136218;27;20046;-69
2023/06/09 12:35:44;;;;;;;7.60;6.40;;;22.00;99.90;;;;;;5135680;27;20034;-69
2023/06/09 12:38:23;;;;;;;7.55;6.75;;;22.10;99.90;;;;;;5135699;27;20340;-69
2023/06/09 12:40:58;;;;;;;8.05;6.40;;;22.00;99.90;;;;;;5135631;27;20468;-69
2023/06/09 12:43:25;;;;;;;9.32;6.60;;;22.00;99.90;;;;;;5136055;27;20019;-69
2023/06/09 12:45:56;;;;;;;7.38;6.25;;;22.00;99.90;;;;;;5135312;27;20130;-69
2023/06/09 12:48:22;;;;;;;8.38;6.80;;;22.00;99.90;;;;;;5135750;27;20178;-68